Time;durP1;ratioP1;P1;durP2;ratioP2;P2;SDS_P1;SDS_P2;PMS_P1;PMS_P2;Temp;Humidity;BMP_temperature;BMP_pressure;BME280_temperature;BME280_humidity;BME280_pressure;Samples;Min_cycle;Max_cycle;Signal;HPM_P1;HPM_P2
2021/05/19 00:00:43;;;;;;;4.18;3.63;;;;;;;;;;5009012;28;20083;-84
2021/05/19 00:03:09;;;;;;;6.13;3.78;;;;;;;;;;5010474;28;20056;-85
2021/05/19 00:05:34;;;;;;;4.80;4.30;;;;;;;;;;5009670;28;20113;-85
2021/05/19 00:07:59;;;;;;;5.25;3.75;;;;;;;;;;5010159;28;20047;-85
2021/05/19 00:10:24;;;;;;;4.20;3.80;;;;;;;;;;5009342;28;20104;-88
2021/05/19 00:12:49;;;;;;;5.43;4.10;;;;;;;;;;5009182;28;20094;-87
2021/05/19 00:15:15;;;;;;;4.60;3.85;;;;;;;;;;5009265;28;20488;-87
2021/05/19 00:17:41;;;;;;;5.50;4.05;;;;;;;;;;5010605;28;20022;-87
2021/05/19 00:20:07;;;;;;;8.43;3.92;;;;;;;;;;5008898;28;20030;-88
2021/05/19 00:22:32;;;;;;;6.07;4.50;;;;;;;;;;5025125;28;20446;-88
2021/05/19 00:24:57;;;;;;;4.72;4.22;;;;;;;;;;5009097;28;20026;-87
2021/05/19 00:27:22;;;;;;;5.88;4.30;;;;;;;;;;5010554;28;20105;-87
2021/05/19 00:29:49;;;;;;;4.68;4.00;;;;;;;;;;5008726;28;20026;-86
2021/05/19 00:32:14;;;;;;;6.25;5.22;;;;;;;;;;5010124;28;20373;-87
2021/05/19 00:34:40;;;;;;;7.65;3.90;;;;;;;;;;5010346;28;20025;-87
2021/05/19 00:37:05;;;;;;;4.72;4.10;;;;;;;;;;5010034;28;20108;-87
2021/05/19 00:39:30;;;;;;;5.63;4.03;;;;;;;;;;5009559;28;20014;-87
2021/05/19 00:41:55;;;;;;;5.10;4.00;;;;;;;;;;5009712;28;20049;-87
2021/05/19 00:44:21;;;;;;;6.43;4.47;;;;;;;;;;5008694;28;20086;-87
2021/05/19 00:46:47;;;;;;;6.55;4.10;;;;;;;;;;5010197;28;20473;-87
2021/05/19 00:49:12;;;;;;;5.17;4.10;;;;;;;;;;5008815;28;20084;-87
2021/05/19 00:51:38;;;;;;;5.38;4.25;;;;;;;;;;5010114;28;20469;-88
2021/05/19 00:54:03;;;;;;;4.75;4.25;;;;;;;;;;5009940;28;20056;-87
2021/05/19 00:56:28;;;;;;;6.68;4.03;;;;;;;;;;5008921;28;20105;-87
2021/05/19 00:58:58;;;;;;;4.70;4.07;;;;;;;;;;5025205;28;20071;-87
2021/05/19 01:01:24;;;;;;;5.90;4.50;;;;;;;;;;5008064;28;20007;-87
2021/05/19 01:03:49;;;;;;;6.60;4.30;;;;;;;;;;5008656;28;20434;-87
2021/05/19 01:06:23;;;;;;;7.07;4.43;;;;;;;;;;5008636;28;20024;-87
2021/05/19 01:11:32;;;;;;;7.50;4.63;;;;;;;;;;5010029;28;20033;-87
2021/05/19 01:13:57;;;;;;;4.80;4.30;;;;;;;;;;5024469;28;20025;-87
2021/05/19 01:16:22;;;;;;;4.88;4.30;;;;;;;;;;5008273;28;20018;-87
2021/05/19 01:18:48;;;;;;;4.97;4.45;;;;;;;;;;5009811;28;20445;-87
2021/05/19 01:21:13;;;;;;;7.50;4.30;;;;;;;;;;5009153;28;20076;-87
2021/05/19 01:23:39;;;;;;;4.60;4.20;;;;;;;;;;5004672;28;20038;-87
2021/05/19 01:26:05;;;;;;;5.03;4.40;;;;;;;;;;5008093;28;20398;-87
2021/05/19 01:28:30;;;;;;;5.82;4.35;;;;;;;;;;5009303;28;20112;-87
2021/05/19 01:30:55;;;;;;;7.37;4.80;;;;;;;;;;5009511;28;20045;-87
2021/05/19 01:33:21;;;;;;;5.40;4.50;;;;;;;;;;5008201;28;20056;-87
2021/05/19 01:35:46;;;;;;;6.55;5.15;;;;;;;;;;5009412;28;20421;-86
2021/05/19 01:38:15;;;;;;;9.02;5.28;;;;;;;;;;5008232;28;20078;-87
2021/05/19 01:40:40;;;;;;;8.20;5.13;;;;;;;;;;5009457;28;20054;-87
2021/05/19 01:43:05;;;;;;;5.73;5.00;;;;;;;;;;5009154;28;20477;-88
2021/05/19 01:45:31;;;;;;;5.90;4.90;;;;;;;;;;5009297;28;20029;-87
2021/05/19 01:47:56;;;;;;;7.20;4.70;;;;;;;;;;5009077;28;20162;-86
2021/05/19 01:50:21;;;;;;;8.38;5.28;;;;;;;;;;5011952;28;20519;-87
2021/05/19 01:52:48;;;;;;;7.22;5.82;;;;;;;;;;5011204;28;20793;-87
2021/05/19 01:55:14;;;;;;;6.90;5.27;;;;;;;;;;5012732;28;20026;-87
2021/05/19 01:57:42;;;;;;;7.45;5.78;;;;;;;;;;5012734;28;20044;-87
2021/05/19 02:00:07;;;;;;;6.43;4.93;;;;;;;;;;5011286;28;20071;-87
2021/05/19 02:02:33;;;;;;;6.47;5.20;;;;;;;;;;5012397;28;20022;-88
2021/05/19 02:04:59;;;;;;;9.20;4.97;;;;;;;;;;5012474;28;20489;-87
2021/05/19 02:07:24;;;;;;;6.53;4.83;;;;;;;;;;5011363;28;20391;-87
2021/05/19 02:09:49;;;;;;;7.95;5.38;;;;;;;;;;5027640;28;20113;-86
2021/05/19 02:12:14;;;;;;;7.23;5.07;;;;;;;;;;5010723;28;20026;-87
2021/05/19 02:14:40;;;;;;;6.80;5.10;;;;;;;;;;5012267;28;20029;-87
2021/05/19 02:17:05;;;;;;;9.57;5.17;;;;;;;;;;5012193;28;20106;-87
2021/05/19 02:19:31;;;;;;;8.13;5.77;;;;;;;;;;5012418;28;20066;-87
2021/05/19 02:21:56;;;;;;;7.50;5.40;;;;;;;;;;5011982;28;20113;-88
2021/05/19 02:24:21;;;;;;;8.10;5.57;;;;;;;;;;5012365;28;20029;-87
2021/05/19 02:26:47;;;;;;;9.30;5.87;;;;;;;;;;5012133;28;20022;-86
2021/05/19 02:29:12;;;;;;;13.60;6.30;;;;;;;;;;5012087;28;20113;-87
2021/05/19 02:31:38;;;;;;;9.27;5.70;;;;;;;;;;5011053;28;20022;-87
2021/05/19 02:34:03;;;;;;;8.48;5.65;;;;;;;;;;5011711;28;20025;-87
2021/05/19 02:36:29;;;;;;;9.03;5.43;;;;;;;;;;5010433;28;20078;-87
2021/05/19 02:38:54;;;;;;;9.57;6.40;;;;;;;;;;5011959;28;20057;-87
2021/05/19 02:41:19;;;;;;;8.73;6.10;;;;;;;;;;5010467;28;20075;-86
2021/05/19 02:43:45;;;;;;;14.27;6.63;;;;;;;;;;5012456;28;20042;-87
2021/05/19 02:46:12;;;;;;;11.25;7.03;;;;;;;;;;5011858;28;20476;-88
2021/05/19 02:48:38;;;;;;;12.20;6.10;;;;;;;;;;5010785;28;20112;-87
2021/05/19 02:51:03;;;;;;;9.20;5.80;;;;;;;;;;5010481;28;20049;-87
2021/05/19 02:53:28;;;;;;;14.13;6.57;;;;;;;;;;5011172;28;20026;-87
2021/05/19 02:55:53;;;;;;;10.90;6.77;;;;;;;;;;5011576;28;20063;-87
2021/05/19 02:58:19;;;;;;;14.50;6.87;;;;;;;;;;5010637;28;20461;-87
2021/05/19 03:00:44;;;;;;;12.63;6.53;;;;;;;;;;5011150;28;20109;-87
2021/05/19 03:03:10;;;;;;;13.30;6.85;;;;;;;;;;5010368;28;20051;-87
2021/05/19 03:05:35;;;;;;;10.07;6.33;;;;;;;;;;5026915;28;20048;-87
2021/05/19 03:08:00;;;;;;;11.10;6.33;;;;;;;;;;5010987;28;20063;-87
2021/05/19 03:10:25;;;;;;;9.77;5.97;;;;;;;;;;5011542;28;20476;-87
2021/05/19 03:12:51;;;;;;;11.90;5.93;;;;;;;;;;5011423;28;20018;-87
2021/05/19 03:15:17;;;;;;;12.70;5.90;;;;;;;;;;5011377;28;20014;-87
2021/05/19 03:17:42;;;;;;;11.77;5.75;;;;;;;;;;5026689;28;20022;-88
2021/05/19 03:20:08;;;;;;;10.13;6.00;;;;;;;;;;5011264;28;20030;-87
2021/05/19 03:22:33;;;;;;;10.00;6.40;;;;;;;;;;5011247;28;20813;-87
2021/05/19 03:24:58;;;;;;;9.40;5.93;;;;;;;;;;5009887;28;20014;-87
2021/05/19 03:27:23;;;;;;;14.27;6.33;;;;;;;;;;5011224;28;20014;-87
2021/05/19 03:29:49;;;;;;;14.17;6.30;;;;;;;;;;5026355;28;20071;-87
2021/05/19 03:32:14;;;;;;;17.53;6.10;;;;;;;;;;5010836;28;20021;-87
2021/05/19 03:34:39;;;;;;;8.00;5.50;;;;;;;;;;5026370;28;20036;-88
2021/05/19 03:37:05;;;;;;;11.13;5.97;;;;;;;;;;5011291;28;20517;-88
2021/05/19 03:39:30;;;;;;;11.97;6.20;;;;;;;;;;5008302;28;20029;-88
2021/05/19 03:41:55;;;;;;;11.33;6.07;;;;;;;;;;5008654;28;20116;-87
2021/05/19 03:44:20;;;;;;;12.27;6.13;;;;;;;;;;5007515;28;20025;-88
2021/05/19 03:46:47;;;;;;;11.57;5.87;;;;;;;;;;5008218;28;20045;-88
2021/05/19 03:49:12;;;;;;;11.63;5.70;;;;;;;;;;5009110;28;20030;-88
2021/05/19 03:51:37;;;;;;;11.73;5.30;;;;;;;;;;5007870;28;20393;-88
2021/05/19 03:54:03;;;;;;;11.63;6.17;;;;;;;;;;5008506;28;20029;-88
2021/05/19 03:56:29;;;;;;;18.60;5.90;;;;;;;;;;5024539;28;20173;-88
2021/05/19 03:58:54;;;;;;;17.88;5.90;;;;;;;;;;5009549;28;20022;-88
2021/05/19 04:01:19;;;;;;;13.03;6.20;;;;;;;;;;5007396;28;20014;-85
2021/05/19 04:03:44;;;;;;;14.60;6.00;;;;;;;;;;5008932;28;20430;-85
2021/05/19 04:06:10;;;;;;;10.87;5.43;;;;;;;;;;5024058;28;20022;-85
2021/05/19 04:08:39;;;;;;;13.93;5.87;;;;;;;;;;5008327;28;20155;-85
2021/05/19 04:11:05;;;;;;;12.77;6.15;;;;;;;;;;5009166;28;20105;-85
2021/05/19 04:13:31;;;;;;;14.32;4.97;;;;;;;;;;5008124;28;20129;-85
2021/05/19 04:15:56;;;;;;;17.50;4.95;;;;;;;;;;5008896;28;20025;-85
2021/05/19 04:18:22;;;;;;;15.27;5.30;;;;;;;;;;5009121;28;20108;-85
2021/05/19 04:20:50;;;;;;;9.52;4.57;;;;;;;;;;5008798;28;20028;-84
2021/05/19 04:23:16;;;;;;;11.95;4.43;;;;;;;;;;5010069;28;20024;-84
2021/05/19 04:25:41;;;;;;;14.65;4.93;;;;;;;;;;5009032;28;20013;-85
2021/05/19 04:28:06;;;;;;;13.48;5.13;;;;;;;;;;5008876;28;20093;-85
2021/05/19 04:30:31;;;;;;;10.68;5.25;;;;;;;;;;5010067;28;20400;-85
2021/05/19 04:32:57;;;;;;;20.17;8.73;;;;;;;;;;5008360;28;20034;-85
2021/05/19 04:35:22;;;;;;;29.77;13.48;;;;;;;;;;5008888;28;20022;-85
2021/05/19 04:37:47;;;;;;;28.70;11.85;;;;;;;;;;5009818;28;20049;-85
2021/05/19 04:40:12;;;;;;;17.65;8.07;;;;;;;;;;5010081;28;20437;-85
2021/05/19 04:42:38;;;;;;;13.52;6.18;;;;;;;;;;5024961;28;20048;-85
2021/05/19 04:45:04;;;;;;;13.30;5.28;;;;;;;;;;5008624;28;20095;-85
2021/05/19 04:47:29;;;;;;;10.52;4.93;;;;;;;;;;5009721;28;20044;-85
2021/05/19 04:49:54;;;;;;;13.85;5.32;;;;;;;;;;5009851;28;20441;-85
2021/05/19 04:52:20;;;;;;;14.23;5.38;;;;;;;;;;5007913;28;20109;-85
2021/05/19 04:54:45;;;;;;;13.02;5.30;;;;;;;;;;5006882;28;20353;-85
2021/05/19 04:57:10;;;;;;;15.40;5.13;;;;;;;;;;5007158;28;20125;-85
2021/05/19 04:59:35;;;;;;;16.73;5.78;;;;;;;;;;5008068;28;20097;-85
2021/05/19 05:02:00;;;;;;;13.57;4.97;;;;;;;;;;5022416;28;20380;-85
2021/05/19 05:04:25;;;;;;;11.98;5.05;;;;;;;;;;5006790;28;20030;-85
2021/05/19 05:06:51;;;;;;;15.68;5.53;;;;;;;;;;5006367;28;20026;-85
2021/05/19 05:09:16;;;;;;;18.30;5.47;;;;;;;;;;5007849;28;20018;-85
2021/05/19 05:11:41;;;;;;;15.65;5.05;;;;;;;;;;5023303;28;20417;-87
2021/05/19 05:14:06;;;;;;;12.10;4.55;;;;;;;;;;5007916;28;20026;-88
2021/05/19 05:16:31;;;;;;;16.90;4.50;;;;;;;;;;5008310;28;20026;-87
2021/05/19 05:18:57;;;;;;;10.52;4.00;;;;;;;;;;5007290;28;20053;-87
2021/05/19 05:21:22;;;;;;;15.60;3.90;;;;;;;;;;5009425;28;20561;-87
2021/05/19 05:23:47;;;;;;;11.25;3.72;;;;;;;;;;5024877;28;20072;-87
2021/05/19 05:26:14;;;;;;;12.93;4.00;;;;;;;;;;5011919;28;20053;-87
2021/05/19 05:28:39;;;;;;;15.30;3.45;;;;;;;;;;5012389;28;20026;-87
2021/05/19 05:31:04;;;;;;;13.27;4.30;;;;;;;;;;5011696;28;20036;-87
2021/05/19 05:33:30;;;;;;;15.50;4.50;;;;;;;;;;5027894;28;20022;-87
2021/05/19 05:35:55;;;;;;;15.48;4.93;;;;;;;;;;5027654;28;20026;-87
2021/05/19 05:38:20;;;;;;;14.63;5.00;;;;;;;;;;5011639;28;20018;-87
2021/05/19 05:40:45;;;;;;;18.70;5.15;;;;;;;;;;5011353;28;20017;-87
2021/05/19 05:43:10;;;;;;;16.13;5.57;;;;;;;;;;5012182;28;20129;-88
2021/05/19 05:45:36;;;;;;;24.45;6.22;;;;;;;;;;5011483;28;20026;-88
2021/05/19 05:48:01;;;;;;;21.42;5.95;;;;;;;;;;5011839;28;20038;-85
2021/05/19 05:50:27;;;;;;;19.30;4.75;;;;;;;;;;5012667;28;20036;-85
2021/05/19 05:52:52;;;;;;;16.52;4.75;;;;;;;;;;5012417;28;20429;-85
2021/05/19 05:55:20;;;;;;;20.08;5.82;;;;;;;;;;5012387;28;20078;-85
2021/05/19 05:57:45;;;;;;;17.15;4.78;;;;;;;;;;5012285;28;20097;-85
2021/05/19 06:00:12;;;;;;;21.92;6.15;;;;;;;;;;5027732;28;20115;-85
2021/05/19 06:02:38;;;;;;;17.85;5.53;;;;;;;;;;5012110;28;20481;-85
2021/05/19 06:05:03;;;;;;;16.95;5.20;;;;;;;;;;5011157;28;20025;-86
2021/05/19 06:07:29;;;;;;;18.80;5.82;;;;;;;;;;5012329;28;20109;-85
2021/05/19 06:09:54;;;;;;;17.52;5.22;;;;;;;;;;5010791;28;20096;-84
2021/05/19 06:12:19;;;;;;;12.32;4.95;;;;;;;;;;5010121;28;20484;-84
2021/05/19 06:14:45;;;;;;;17.10;6.00;;;;;;;;;;5011519;28;20014;-84
2021/05/19 06:17:12;;;;;;;18.77;5.78;;;;;;;;;;5010247;28;20557;-84
2021/05/19 06:19:37;;;;;;;21.52;6.38;;;;;;;;;;5059668;28;20022;-83
2021/05/19 06:22:02;;;;;;;23.75;6.93;;;;;;;;;;5004820;28;20454;-83
2021/05/19 06:24:28;;;;;;;18.85;6.05;;;;;;;;;;5021110;28;20032;-84
2021/05/19 06:26:53;;;;;;;13.50;5.35;;;;;;;;;;5021795;28;20134;-84
2021/05/19 06:29:18;;;;;;;23.67;6.40;;;;;;;;;;5047529;28;20453;-84
2021/05/19 06:31:44;;;;;;;21.48;6.07;;;;;;;;;;5003164;28;20049;-88
2021/05/19 06:34:09;;;;;;;23.25;5.65;;;;;;;;;;5011548;28;20025;-86
2021/05/19 06:36:34;;;;;;;14.98;4.88;;;;;;;;;;5009402;28;20055;-87
2021/05/19 06:38:59;;;;;;;16.77;5.22;;;;;;;;;;5011570;28;20033;-87
2021/05/19 06:41:25;;;;;;;19.08;5.28;;;;;;;;;;5026938;28;20014;-87
2021/05/19 06:43:50;;;;;;;17.67;4.32;;;;;;;;;;5063437;28;20076;-87
2021/05/19 06:46:15;;;;;;;23.85;5.35;;;;;;;;;;5021761;28;20029;-87
2021/05/19 06:48:41;;;;;;;11.55;3.88;;;;;;;;;;5054264;28;20491;-87
2021/05/19 06:51:06;;;;;;;11.90;3.92;;;;;;;;;;5044657;28;20114;-88
2021/05/19 06:53:31;;;;;;;19.25;4.03;;;;;;;;;;5017534;28;20033;-88
2021/05/19 06:55:57;;;;;;;12.02;3.83;;;;;;;;;;5010311;28;20029;-88
2021/05/19 06:58:23;;;;;;;18.40;4.00;;;;;;;;;;5026569;28;20040;-87
2021/05/19 07:00:48;;;;;;;18.40;4.53;;;;;;;;;;5010278;28;20025;-87
2021/05/19 07:03:13;;;;;;;14.65;3.75;;;;;;;;;;5023931;28;20030;-87
2021/05/19 07:05:39;;;;;;;21.08;4.78;;;;;;;;;;5063098;28;20431;-87
2021/05/19 07:08:06;;;;;;;15.82;4.00;;;;;;;;;;5024891;28;20541;-87
2021/05/19 07:10:31;;;;;;;19.13;3.85;;;;;;;;;;5026523;28;20396;-87
2021/05/19 07:12:56;;;;;;;25.45;4.65;;;;;;;;;;5009784;28;20026;-87
2021/05/19 07:15:22;;;;;;;15.27;4.53;;;;;;;;;;5011688;28;20037;-87
2021/05/19 07:17:48;;;;;;;14.55;4.05;;;;;;;;;;5053658;28;20030;-88
2021/05/19 07:20:13;;;;;;;13.70;4.03;;;;;;;;;;5014508;28;20476;-85
2021/05/19 07:22:39;;;;;;;13.55;4.28;;;;;;;;;;5009516;28;20113;-86
2021/05/19 07:25:04;;;;;;;19.98;4.75;;;;;;;;;;5031341;28;20376;-86
2021/05/19 07:27:30;;;;;;;14.60;4.00;;;;;;;;;;5009526;28;20033;-86
2021/05/19 07:29:55;;;;;;;16.35;4.25;;;;;;;;;;5020641;28;20080;-85
2021/05/19 07:32:21;;;;;;;16.88;4.18;;;;;;;;;;5074942;28;20025;-86
2021/05/19 07:34:46;;;;;;;16.67;4.72;;;;;;;;;;5040764;28;20940;-85
2021/05/19 07:37:11;;;;;;;18.35;4.57;;;;;;;;;;5010472;28;20014;-85
2021/05/19 07:39:36;;;;;;;11.38;3.28;;;;;;;;;;5029374;28;20013;-85
2021/05/19 07:42:02;;;;;;;17.90;3.22;;;;;;;;;;5010847;28;20021;-85
2021/05/19 07:44:27;;;;;;;14.60;3.38;;;;;;;;;;5023996;28;20026;-85
2021/05/19 07:46:52;;;;;;;15.77;3.80;;;;;;;;;;5010382;28;20030;-84
2021/05/19 07:49:17;;;;;;;17.38;3.40;;;;;;;;;;5042868;27;20019;-84
2021/05/19 07:51:43;;;;;;;15.07;3.25;;;;;;;;;;5010581;28;20014;-83
2021/05/19 07:54:10;;;;;;;16.02;3.08;;;;;;;;;;5012918;28;20063;-86
2021/05/19 07:56:43;;;;;;;12.57;3.03;;;;;;;;;;5045938;28;20025;-86
2021/05/19 07:59:15;;;;;;;18.00;3.35;;;;;;;;;;5060667;27;20016;-87
2021/05/19 08:04:06;;;;;;;16.42;3.33;;;;;;;;;;5010423;28;20056;-87
2021/05/19 08:06:32;;;;;;;21.77;2.78;;;;;;;;;;5010006;28;20018;-86
2021/05/19 08:08:57;;;;;;;16.90;3.55;;;;;;;;;;5012142;28;20560;-86
2021/05/19 08:11:22;;;;;;;13.38;2.90;;;;;;;;;;5027910;28;20412;-84
2021/05/19 08:13:47;;;;;;;22.33;3.13;;;;;;;;;;5026925;28;20031;-84
2021/05/19 08:16:13;;;;;;;14.90;3.22;;;;;;;;;;5010124;28;20075;-84
2021/05/19 08:18:38;;;;;;;15.60;2.67;;;;;;;;;;5075728;28;20508;-84
2021/05/19 08:21:03;;;;;;;15.85;2.58;;;;;;;;;;5010509;28;20029;-86
2021/05/19 08:23:29;;;;;;;14.52;2.55;;;;;;;;;;5008309;28;20514;-85
2021/05/19 08:25:54;;;;;;;13.50;2.35;;;;;;;;;;5009957;28;20056;-85
2021/05/19 08:28:20;;;;;;;16.83;2.50;;;;;;;;;;5012096;28;20373;-85
2021/05/19 08:30:45;;;;;;;10.52;2.25;;;;;;;;;;5072446;28;20045;-84
2021/05/19 08:33:10;;;;;;;15.90;2.88;;;;;;;;;;5068398;28;20304;-84
2021/05/19 08:35:35;;;;;;;13.02;2.20;;;;;;;;;;5030058;28;20112;-84
2021/05/19 08:38:00;;;;;;;13.02;2.58;;;;;;;;;;5009830;28;20020;-83
2021/05/19 08:40:29;;;;;;;13.48;2.83;;;;;;;;;;5014784;28;20361;-84
2021/05/19 08:42:55;;;;;;;12.35;2.95;;;;;;;;;;5038572;28;20394;-84
2021/05/19 08:45:20;;;;;;;12.35;3.13;;;;;;;;;;5049235;28;20076;-84
2021/05/19 08:47:47;;;;;;;11.68;2.95;;;;;;;;;;5049466;28;20071;-82
2021/05/19 08:50:12;;;;;;;11.93;2.95;;;;;;;;;;5058817;28;20032;-83
2021/05/19 08:52:38;;;;;;;13.65;3.20;;;;;;;;;;5030041;28;20022;-87
2021/05/19 08:55:10;;;;;;;10.55;2.33;;;;;;;;;;5024975;28;20018;-83
2021/05/19 08:57:38;;;;;;;17.75;2.20;;;;;;;;;;5016528;28;20039;-83
2021/05/19 09:00:04;;;;;;;7.85;2.05;;;;;;;;;;5012484;28;20034;-83
2021/05/19 09:02:29;;;;;;;12.88;2.45;;;;;;;;;;5044449;28;20029;-83
2021/05/19 09:04:58;;;;;;;16.73;2.85;;;;;;;;;;5022868;28;20045;-83
2021/05/19 09:07:24;;;;;;;15.30;3.42;;;;;;;;;;5033882;28;20041;-83
2021/05/19 09:09:50;;;;;;;12.85;3.30;;;;;;;;;;5004393;28;20497;-83
2021/05/19 09:12:16;;;;;;;14.82;3.60;;;;;;;;;;5037599;28;20026;-83
2021/05/19 09:14:42;;;;;;;19.02;3.08;;;;;;;;;;5041241;28;20459;-83
2021/05/19 09:17:14;;;;;;;15.65;3.80;;;;;;;;;;5036675;28;20033;-83
2021/05/19 09:19:40;;;;;;;18.83;3.97;;;;;;;;;;5021831;28;20023;-83
2021/05/19 09:22:14;;;;;;;22.67;4.35;;;;;;;;;;5037495;28;20727;-83
2021/05/19 09:24:41;;;;;;;12.02;3.22;;;;;;;;;;5046379;28;20396;-83
2021/05/19 09:27:07;;;;;;;10.48;3.03;;;;;;;;;;5037097;28;20014;-83
2021/05/19 09:29:44;;;;;;;16.98;3.47;;;;;;;;;;5053661;28;20487;-83
2021/05/19 09:32:10;;;;;;;13.40;3.20;;;;;;;;;;5036197;28;20026;-83
2021/05/19 09:34:41;;;;;;;15.40;3.42;;;;;;;;;;5008508;28;20022;-84
2021/05/19 09:37:26;;;;;;;9.25;3.00;;;;;;;;;;5008281;28;20022;-82
2021/05/19 09:39:57;;;;;;;12.05;3.33;;;;;;;;;;4996349;28;20583;-82
2021/05/19 09:42:27;;;;;;;7.47;2.20;;;;;;;;;;5013642;28;20032;-82
2021/05/19 09:44:55;;;;;;;8.98;3.03;;;;;;;;;;5007530;28;20018;-82
2021/05/19 09:47:39;;;;;;;13.25;3.65;;;;;;;;;;5016217;28;20041;-81
2021/05/19 09:50:05;;;;;;;8.38;1.90;;;;;;;;;;5053820;28;20014;-82
2021/05/19 09:52:30;;;;;;;8.48;2.20;;;;;;;;;;5024511;28;20075;-82
2021/05/19 09:55:01;;;;;;;7.78;2.00;;;;;;;;;;5019431;28;20022;-82
2021/05/19 09:57:39;;;;;;;12.85;2.28;;;;;;;;;;5010491;28;20019;-81
2021/05/19 10:00:04;;;;;;;11.57;2.10;;;;;;;;;;4995898;28;20053;-82
2021/05/19 10:02:33;;;;;;;10.77;2.15;;;;;;;;;;5041577;28;20053;-82
2021/05/19 10:05:06;;;;;;;7.47;1.85;;;;;;;;;;5008333;28;20018;-82
2021/05/19 10:07:31;;;;;;;6.80;1.63;;;;;;;;;;5016673;28;20511;-84
2021/05/19 10:09:56;;;;;;;13.90;1.98;;;;;;;;;;5041945;28;20019;-84
2021/05/19 10:12:21;;;;;;;4.75;1.65;;;;;;;;;;5017807;28;20029;-84
2021/05/19 10:14:47;;;;;;;8.30;1.60;;;;;;;;;;5011480;28;20033;-84
2021/05/19 10:17:13;;;;;;;7.68;1.80;;;;;;;;;;5012364;28;20353;-84
2021/05/19 10:19:41;;;;;;;11.25;2.05;;;;;;;;;;5010827;28;20357;-84
2021/05/19 10:22:13;;;;;;;9.77;2.40;;;;;;;;;;5047952;28;20018;-82
2021/05/19 10:24:48;;;;;;;12.52;2.53;;;;;;;;;;5026862;28;20037;-82
2021/05/19 10:27:15;;;;;;;11.00;3.03;;;;;;;;;;5060811;28;20392;-82
2021/05/19 10:29:46;;;;;;;14.20;3.00;;;;;;;;;;5040337;28;20016;-82
2021/05/19 10:32:20;;;;;;;10.97;2.90;;;;;;;;;;5044297;28;20028;-82
2021/05/19 10:34:46;;;;;;;7.78;3.20;;;;;;;;;;5052258;28;20104;-81
2021/05/19 10:37:37;;;;;;;8.82;3.00;;;;;;;;;;5091195;28;20078;-82
2021/05/19 10:40:18;;;;;;;11.35;2.47;;;;;;;;;;5006685;28;20053;-82
2021/05/19 10:42:51;;;;;;;7.82;2.63;;;;;;;;;;5018390;28;20033;-82
2021/05/19 10:45:16;;;;;;;9.82;2.50;;;;;;;;;;5010452;28;20037;-82
2021/05/19 10:47:42;;;;;;;9.25;2.00;;;;;;;;;;5011211;28;20018;-82
2021/05/19 10:57:12;;;;;;;6.72;1.23;;;;;;;;;;5078780;28;20527;-82
2021/05/19 10:58:43;;;;;;;5.18;1.63;;;;;;;;;;5039855;28;20037;-82
2021/05/19 11:01:10;;;;;;;3.88;1.13;;;;;;;;;;5024606;28;20031;-81
2021/05/19 11:03:36;;;;;;;5.10;1.17;;;;;;;;;;5010112;28;20049;-82
2021/05/19 11:06:03;;;;;;;4.30;1.02;;;;;;;;;;5009533;28;20021;-82
2021/05/19 11:08:29;;;;;;;6.80;1.05;;;;;;;;;;5021561;28;20378;-82
2021/05/19 11:11:14;;;;;;;2.58;1.13;;;;;;;;;;5042717;28;20018;-82
2021/05/19 11:13:56;;;;;;;5.07;1.48;;;;;;;;;;5099899;28;20037;-82
2021/05/19 11:16:26;;;;;;;6.00;1.25;;;;;;;;;;5011334;28;20068;-82
2021/05/19 11:19:12;;;;;;;9.48;1.95;;;;;;;;;;5011286;28;20100;-82
2021/05/19 11:21:37;;;;;;;6.07;1.55;;;;;;;;;;5011072;28;20021;-81
2021/05/19 11:24:03;;;;;;;3.97;1.88;;;;;;;;;;5014748;28;20026;-82
2021/05/19 11:26:34;;;;;;;5.50;1.83;;;;;;;;;;5040091;28;20024;-81
2021/05/19 11:28:59;;;;;;;7.47;1.85;;;;;;;;;;5009812;28;20030;-82
2021/05/19 11:31:31;;;;;;;5.70;1.77;;;;;;;;;;5011586;28;20406;-81
2021/05/19 11:33:58;;;;;;;6.05;1.58;;;;;;;;;;5040486;28;20514;-82
2021/05/19 11:36:27;;;;;;;5.03;1.50;;;;;;;;;;5067158;27;20090;-81
2021/05/19 11:38:52;;;;;;;8.27;1.73;;;;;;;;;;5009510;28;20026;-82
2021/05/19 11:41:21;;;;;;;2.65;1.60;;;;;;;;;;5026173;28;20010;-81
2021/05/19 11:43:46;;;;;;;4.72;1.95;;;;;;;;;;5012907;28;20567;-82
2021/05/19 11:46:11;;;;;;;6.90;1.80;;;;;;;;;;5017641;28;20030;-82
2021/05/19 11:48:38;;;;;;;4.03;1.50;;;;;;;;;;5025072;28;20033;-81
2021/05/19 11:51:14;;;;;;;7.45;1.63;;;;;;;;;;5010996;28;20056;-82
2021/05/19 11:53:52;;;;;;;3.72;1.88;;;;;;;;;;5012596;28;20022;-82
2021/05/19 11:56:17;;;;;;;4.45;2.00;;;;;;;;;;5014357;28;20071;-82
2021/05/19 11:58:42;;;;;;;4.07;1.13;;;;;;;;;;5025750;28;20461;-81
2021/05/19 12:01:07;;;;;;;4.25;1.58;;;;;;;;;;5010352;28;20018;-81
2021/05/19 12:03:36;;;;;;;5.97;1.90;;;;;;;;;;5036894;28;20020;-81
2021/05/19 12:06:04;;;;;;;3.03;1.48;;;;;;;;;;5069155;28;20126;-81
2021/05/19 12:08:29;;;;;;;8.32;2.17;;;;;;;;;;5009800;28;20423;-81
2021/05/19 12:11:01;;;;;;;5.50;1.72;;;;;;;;;;5030549;28;20024;-81
2021/05/19 12:13:27;;;;;;;;;;;;;;;;;;5033538;28;20023;-81
2021/05/19 12:15:52;;;;;;;7.00;2.40;;;;;;;;;;5092186;28;19919;-82
2021/05/19 12:18:17;;;;;;;5.05;1.70;;;;;;;;;;5025738;28;20515;-81
2021/05/19 12:20:42;;;;;;;7.32;2.08;;;;;;;;;;5012038;28;20078;-81
2021/05/19 12:23:07;;;;;;;9.25;2.30;;;;;;;;;;5014004;28;20031;-82
2021/05/19 12:25:33;;;;;;;5.40;2.33;;;;;;;;;;5014968;28;20057;-81
2021/05/19 12:28:07;;;;;;;3.85;2.08;;;;;;;;;;5015179;28;20056;-81
2021/05/19 12:30:46;;;;;;;6.10;2.00;;;;;;;;;;4995984;28;20515;-82
2021/05/19 12:33:13;;;;;;;7.63;2.20;;;;;;;;;;5012955;28;20024;-81
2021/05/19 12:35:44;;;;;;;6.18;2.05;;;;;;;;;;5031682;28;20465;-81
2021/05/19 12:38:09;;;;;;;5.50;1.80;;;;;;;;;;5009968;28;20010;-82
2021/05/19 12:40:36;;;;;;;6.13;1.77;;;;;;;;;;5033142;28;20033;-82
2021/05/19 12:43:08;;;;;;;3.85;1.80;;;;;;;;;;5010028;28;20113;-82
2021/05/19 12:45:38;;;;;;;5.88;1.92;;;;;;;;;;5020694;28;20070;-82
2021/05/19 12:48:14;;;;;;;6.47;1.98;;;;;;;;;;5010014;28;20026;-82
2021/05/19 12:50:40;;;;;;;4.65;1.95;;;;;;;;;;5009720;28;20014;-82
2021/05/19 12:53:05;;;;;;;4.00;1.92;;;;;;;;;;5009488;28;20380;-82
2021/05/19 12:55:30;;;;;;;5.30;1.90;;;;;;;;;;5018657;28;20079;-81
2021/05/19 12:58:06;;;;;;;7.38;1.90;;;;;;;;;;5032671;28;20071;-82
2021/05/19 13:00:31;;;;;;;2.72;1.58;;;;;;;;;;5010442;28;20034;-81
2021/05/19 13:02:56;;;;;;;3.67;1.50;;;;;;;;;;5009423;28;20042;-81
2021/05/19 13:05:22;;;;;;;4.35;1.30;;;;;;;;;;5035100;28;20057;-81
2021/05/19 13:07:50;;;;;;;2.83;1.30;;;;;;;;;;5009166;28;20034;-81
2021/05/19 13:10:32;;;;;;;6.45;1.58;;;;;;;;;;5016239;28;20465;-81
2021/05/19 13:13:09;;;;;;;2.22;1.50;;;;;;;;;;5008157;28;20048;-82
2021/05/19 13:15:44;;;;;;;6.55;1.52;;;;;;;;;;5052689;28;20444;-82
2021/05/19 13:18:25;;;;;;;6.47;1.50;;;;;;;;;;5009937;28;20018;-82
2021/05/19 13:21:03;;;;;;;7.63;1.55;;;;;;;;;;5025739;28;20029;-82
2021/05/19 13:23:39;;;;;;;3.97;1.50;;;;;;;;;;5009215;28;20474;-82
2021/05/19 13:26:05;;;;;;;8.18;1.45;;;;;;;;;;5045071;28;20377;-82
2021/05/19 13:28:30;;;;;;;4.43;1.35;;;;;;;;;;5007614;28;20018;-81
2021/05/19 13:30:55;;;;;;;2.78;1.05;;;;;;;;;;5050352;28;20114;-82
2021/05/19 13:33:28;;;;;;;4.40;1.17;;;;;;;;;;5034985;28;20029;-82
2021/05/19 13:38:38;;;;;;;3.15;1.10;;;;;;;;;;5062633;28;20034;-83
2021/05/19 13:41:03;;;;;;;2.60;0.90;;;;;;;;;;5016141;28;20388;-82
2021/05/19 13:43:28;;;;;;;4.07;1.23;;;;;;;;;;5009591;28;20030;-82
2021/05/19 13:45:55;;;;;;;3.22;1.38;;;;;;;;;;5077371;28;20043;-82
2021/05/19 13:48:20;;;;;;;4.38;1.48;;;;;;;;;;5012455;28;20033;-82
2021/05/19 13:50:45;;;;;;;5.57;1.40;;;;;;;;;;5011983;28;20022;-83
2021/05/19 13:53:11;;;;;;;2.58;1.10;;;;;;;;;;5072105;28;20373;-82
2021/05/19 13:55:36;;;;;;;4.88;1.30;;;;;;;;;;5012058;28;20045;-82
2021/05/19 13:58:02;;;;;;;2.53;1.30;;;;;;;;;;5071401;28;20022;-82
2021/05/19 14:00:27;;;;;;;3.92;1.50;;;;;;;;;;5011114;28;20018;-82
2021/05/19 14:02:53;;;;;;;7.63;1.55;;;;;;;;;;5017005;28;20026;-83
2021/05/19 14:05:24;;;;;;;2.30;0.93;;;;;;;;;;5012140;28;20014;-82
2021/05/19 14:07:49;;;;;;;3.75;1.60;;;;;;;;;;5066488;28;20148;-77
2021/05/19 14:10:15;;;;;;;3.95;1.42;;;;;;;;;;5010867;28;20433;-78
2021/05/19 14:12:42;;;;;;;1.88;1.13;;;;;;;;;;5035158;27;20034;-78
2021/05/19 14:28:17;;;;;;;3.88;0.80;;;;;;;;;;5009134;28;20068;-80
2021/05/19 14:30:42;;;;;;;4.05;0.70;;;;;;;;;;5011842;28;20049;-80
2021/05/19 14:33:08;;;;;;;2.35;1.02;;;;;;;;;;5069541;28;20064;-80
2021/05/19 14:54:04;;;;;;;3.58;1.30;;;;;;;;;;5003805;28;20036;-79
2021/05/19 14:59:34;;;;;;;7.35;1.60;;;;;;;;;;5027609;28;20083;-80
2021/05/19 15:01:59;;;;;;;4.80;1.33;;;;;;;;;;5035606;28;20027;-80
2021/05/19 15:04:24;;;;;;;3.45;1.25;;;;;;;;;;5044468;28;20373;-80
2021/05/19 15:06:49;;;;;;;3.22;1.30;;;;;;;;;;5010880;28;20096;-79
2021/05/19 15:09:15;;;;;;;5.40;2.00;;;;;;;;;;5040919;28;20073;-79
2021/05/19 15:11:40;;;;;;;4.70;1.38;;;;;;;;;;5024619;28;20457;-79
2021/05/19 15:14:06;;;;;;;2.03;1.52;;;;;;;;;;5010110;28;20790;-82
2021/05/19 15:16:32;;;;;;;2.78;1.33;;;;;;;;;;5010983;28;20101;-83
2021/05/19 15:18:57;;;;;;;4.07;1.60;;;;;;;;;;5012873;28;20045;-82
2021/05/19 15:21:23;;;;;;;8.18;2.22;;;;;;;;;;5016908;28;20018;-83